Time;durP1;ratioP1;P1;durP2;ratioP2;P2;SDS_P1;SDS_P2;PMS_P1;PMS_P2;Temp;Humidity;BMP_temperature;BMP_pressure;BME280_temperature;BME280_humidity;BME280_pressure;Samples;Min_cycle;Max_cycle;Signal;HPM_P1;HPM_P2
2023/03/25 00:01:36;;;;;;;;;14.40;13.60;;;;;15.01;31.19;98797.44;5086029;28;8827;-76
2023/03/25 00:04:05;;;;;;;;;13.00;12.00;;;;;14.96;31.23;98794.16;5087838;28;8859;-78
2023/03/25 00:06:35;;;;;;;;;11.80;11.80;;;;;14.70;31.51;98798.06;5071451;28;8903;-79
2023/03/25 00:09:05;;;;;;;;;10.80;10.60;;;;;14.61;31.77;98794.13;5088077;28;8855;-75
2023/03/25 00:11:34;;;;;;;;;11.40;10.00;;;;;14.77;31.56;98781.00;5089293;28;8854;-76
2023/03/25 00:14:03;;;;;;;;;13.20;13.20;;;;;14.62;31.67;98782.59;5089177;28;8867;-76
2023/03/25 00:16:32;;;;;;;;;13.00;13.00;;;;;14.60;31.79;98788.00;5089260;28;8847;-74
2023/03/25 00:19:01;;;;;;;;;13.00;11.60;;;;;14.55;31.83;98797.09;5083322;28;8878;-75
2023/03/25 00:21:32;;;;;;;;;11.20;11.00;;;;;14.56;31.74;98801.41;5068772;28;8922;-74
2023/03/25 00:24:02;;;;;;;;;5.60;4.00;;;;;14.57;31.74;98793.41;5068629;28;8947;-75
2023/03/25 00:26:31;;;;;;;;;10.60;10.60;;;;;14.62;31.52;98787.88;5068664;28;8866;-75
2023/03/25 00:28:59;;;;;;;;;10.80;10.40;;;;;14.59;31.50;98785.41;5066271;28;9615;-75
2023/03/25 00:31:28;;;;;;;;;10.40;10.20;;;;;14.58;31.89;98784.53;5068762;28;8861;-75
2023/03/25 00:33:58;;;;;;;;;13.60;10.20;;;;;14.53;31.90;98790.97;5089404;28;8846;-75
2023/03/25 00:36:27;;;;;;;;;11.60;11.00;;;;;14.54;31.91;98784.78;5082563;28;9013;-75
2023/03/25 00:38:56;;;;;;;;;11.40;11.00;;;;;14.45;32.08;98780.78;5087505;28;8867;-76
2023/03/25 00:41:27;;;;;;;;;10.60;10.00;;;;;14.60;31.79;98769.47;5120764;27;9639;-75
2023/03/25 00:43:58;;;;;;;;;11.20;11.00;;;;;14.66;31.81;98766.50;5087184;28;8815;-75
2023/03/25 00:46:29;;;;;;;;;14.80;14.00;;;;;14.64;31.80;98772.78;5088538;28;8886;-75
2023/03/25 00:48:59;;;;;;;;;12.80;11.00;;;;;14.67;31.99;98765.56;5104230;28;8886;-74
2023/03/25 00:51:30;;;;;;;;;13.80;12.00;;;;;15.02;31.43;98773.53;5086233;28;8839;-75
2023/03/25 00:54:00;;;;;;;;;9.20;9.00;;;;;15.33;30.79;98774.56;5086282;28;8886;-74
2023/03/25 00:56:31;;;;;;;;;12.40;11.40;;;;;15.53;30.61;98765.56;5088202;28;8830;-77
2023/03/25 00:59:00;;;;;;;;;10.00;10.00;;;;;15.40;30.82;98767.16;5088781;28;8853;-76
2023/03/25 01:01:29;;;;;;;;;14.60;13.60;;;;;15.36;31.12;98765.59;5052372;28;8953;-76
2023/03/25 01:04:00;;;;;;;;;13.80;10.80;;;;;15.59;30.58;98759.94;5086800;28;8837;-74
2023/03/25 01:06:33;;;;;;;;;12.80;11.00;;;;;15.79;30.39;98758.88;5086450;28;8850;-75
2023/03/25 01:09:05;;;;;;;;;11.00;11.00;;;;;15.80;30.36;98759.75;5047412;28;8862;-75
2023/03/25 01:11:37;;;;;;;;;12.60;12.00;;;;;15.95;30.13;98758.88;5067924;28;8985;-76
2023/03/25 01:14:08;;;;;;;;;13.80;12.00;;;;;16.06;29.89;98747.69;5067825;28;9014;-75
2023/03/25 01:16:38;;;;;;;;;2.80;1.80;;;;;16.15;29.86;98756.91;5066694;28;8955;-75
2023/03/25 01:19:07;;;;;;;;;11.40;11.00;;;;;16.21;29.59;98754.75;5067963;28;8838;-75
2023/03/25 01:21:36;;;;;;;;;12.80;9.80;;;;;16.25;29.81;98760.75;5087054;28;8855;-75
2023/03/25 01:24:07;;;;;;;;;12.40;12.40;;;;;16.29;29.62;98756.97;5087046;28;8836;-77
2023/03/25 01:26:40;;;;;;;;;13.40;12.00;;;;;16.35;29.53;98758.44;5082184;28;8842;-76
2023/03/25 01:29:08;;;;;;;;;11.20;10.20;;;;;16.36;29.50;98753.03;5066521;28;8842;-76
2023/03/25 01:31:37;;;;;;;;;12.00;12.00;;;;;16.30;29.63;98744.56;5067559;28;8838;-75
2023/03/25 01:34:07;;;;;;;;;10.80;9.80;;;;;16.34;29.50;98748.75;5066008;28;8858;-75
2023/03/25 01:36:38;;;;;;;;;10.80;10.40;;;;;16.35;29.71;98734.56;5066172;28;8854;-74
2023/03/25 01:39:09;;;;;;;;;10.40;9.00;;;;;16.34;29.22;98727.53;5067379;28;8862;-76
2023/03/25 01:41:39;;;;;;;;;11.00;10.20;;;;;16.33;29.46;98734.63;5067520;28;8867;-75
2023/03/25 01:44:56;;;;;;;;;10.60;10.60;;;;;16.32;29.73;98743.56;5085584;28;8844;-76
2023/03/25 01:47:26;;;;;;;;;10.40;10.40;;;;;;;;5087624;28;8951;-74
2023/03/25 01:49:55;;;;;;;;;7.40;6.20;;;;;16.19;29.70;98745.16;5087840;28;8848;-76
2023/03/25 01:52:28;;;;;;;;;10.80;10.80;;;;;16.19;29.87;98742.50;5103400;28;8851;-76
2023/03/25 01:54:59;;;;;;;;;11.20;11.20;;;;;16.14;29.89;98740.13;5087417;28;8859;-76
2023/03/25 01:57:29;;;;;;;;;11.60;11.60;;;;;16.06;30.36;98734.44;5087923;28;8944;-75
2023/03/25 01:59:59;;;;;;;;;10.40;10.40;;;;;16.03;30.08;98732.78;5065254;28;8954;-75
2023/03/25 02:02:33;;;;;;;;;13.20;12.00;;;;;15.99;30.32;98736.56;5066204;28;8850;-75
2023/03/25 02:05:09;;;;;;;;;12.40;10.80;;;;;15.95;30.45;98740.31;5066067;28;8939;-75
2023/03/25 02:07:45;;;;;;;;;12.60;11.40;;;;;15.95;30.45;98736.84;5069184;28;8858;-74
2023/03/25 02:10:15;;;;;;;;;14.00;13.20;;;;;15.90;30.76;98737.06;5069657;28;8854;-74
2023/03/25 02:12:46;;;;;;;;;11.60;11.20;;;;;15.88;30.60;98735.47;5048367;28;8862;-75
2023/03/25 02:15:19;;;;;;;;;14.20;12.20;;;;;15.90;30.48;98726.47;5048890;28;8908;-76
2023/03/25 02:18:05;;;;;;;;;10.20;10.20;;;;;15.92;30.64;98727.22;5068260;28;8840;-75
2023/03/25 02:21:16;;;;;;;;;12.20;11.20;;;;;15.90;30.52;98718.53;5039525;28;8875;-74
2023/03/25 02:24:28;;;;;;;;;10.80;10.60;;;;;15.91;30.21;98716.75;5069854;28;8944;-75
2023/03/25 02:27:26;;;;;;;;;12.20;11.60;;;;;15.85;30.36;98715.28;5085377;28;8856;-75
2023/03/25 02:30:31;;;;;;;;;15.00;13.80;;;;;15.82;30.43;98712.81;5051631;28;8902;-75
2023/03/25 02:33:26;;;;;;;;;6.80;6.80;;;;;15.67;30.88;98735.69;5016379;28;8888;-75
2023/03/25 02:36:29;;;;;;;;;14.60;13.80;;;;;15.71;30.62;98721.34;5064173;28;8899;-75
2023/03/25 02:39:02;;;;;;;;;11.40;11.40;;;;;15.50;30.93;98728.66;5038732;28;8876;-76
2023/03/25 02:41:41;;;;;;;;;15.00;14.00;;;;;15.53;30.88;98725.84;5051798;28;9019;-75
2023/03/25 02:44:16;;;;;;;;;11.20;9.60;;;;;15.52;31.20;98729.41;5060554;28;8871;-75
2023/03/25 02:46:50;;;;;;;;;11.60;10.00;;;;;15.50;31.15;98723.34;5109863;27;8894;-75
2023/03/25 02:49:23;;;;;;;;;14.20;11.80;;;;;15.47;31.28;98726.16;5070533;28;8851;-74
2023/03/25 02:51:59;;;;;;;;;14.40;14.40;;;;;15.50;31.13;98730.44;5072566;28;8855;-74
2023/03/25 02:54:35;;;;;;;;;12.80;11.60;;;;;15.37;31.23;98725.81;5090789;28;8859;-74
2023/03/25 02:57:06;;;;;;;;;17.00;17.00;;;;;15.36;31.05;98718.81;5090202;28;9598;-75
2023/03/25 02:59:38;;;;;;;;;15.00;14.80;;;;;15.34;31.13;98725.09;5089825;28;8845;-75
2023/03/25 03:02:10;;;;;;;;;12.20;11.60;;;;;15.34;31.25;98722.47;5089173;28;8826;-74
2023/03/25 03:04:51;;;;;;;;;13.20;12.80;;;;;15.43;30.99;98725.50;5102765;28;8923;-75
2023/03/25 03:07:25;;;;;;;;;14.80;12.00;;;;;15.37;31.00;98731.09;5086079;28;8878;-74
2023/03/25 03:10:03;;;;;;;;;14.00;12.00;;;;;15.41;31.09;98730.00;5089017;28;8859;-75
2023/03/25 03:12:45;;;;;;;;;13.60;12.00;;;;;15.35;31.04;98729.47;5123292;27;8975;-75
2023/03/25 03:15:26;;;;;;;;;12.40;12.00;;;;;15.40;30.91;98730.94;5087684;28;9048;-75
2023/03/25 03:18:08;;;;;;;;;14.80;14.20;;;;;15.43;31.39;98733.44;5089724;28;8867;-75
2023/03/25 03:20:43;;;;;;;;;13.60;13.20;;;;;15.44;31.19;98727.19;5089890;28;8848;-75
2023/03/25 03:23:23;;;;;;;;;17.40;14.60;;;;;15.50;31.28;98727.81;5086450;28;8836;-75
2023/03/25 03:25:58;;;;;;;;;15.80;14.00;;;;;15.48;31.40;98722.56;5105735;28;8851;-74
2023/03/25 03:28:32;;;;;;;;;14.80;14.00;;;;;15.42;31.32;98721.13;5090163;28;8848;-75
2023/03/25 03:31:07;;;;;;;;;17.80;17.60;;;;;15.47;31.23;98731.44;5122703;27;8863;-75
2023/03/25 03:33:43;;;;;;;;;17.00;16.60;;;;;15.42;31.18;98722.91;5090467;28;8899;-74
2023/03/25 03:36:16;;;;;;;;;13.60;13.40;;;;;15.12;31.58;98725.41;5090166;28;8884;-76
2023/03/25 03:38:50;;;;;;;;;15.20;15.00;;;;;14.84;31.91;98729.50;5058775;28;8831;-76
2023/03/25 03:41:25;;;;;;;;;11.80;11.80;;;;;15.02;31.51;98725.06;5054801;28;8835;-76
2023/03/25 03:44:01;;;;;;;;;13.60;10.20;;;;;15.10;31.45;98722.84;5089793;28;8835;-76
2023/03/25 03:46:36;;;;;;;;;12.40;9.80;;;;;15.16;31.54;98729.59;5089977;28;8906;-75
2023/03/25 03:49:09;;;;;;;;;14.20;13.20;;;;;15.23;31.34;98731.84;5090128;28;8887;-76
2023/03/25 03:51:43;;;;;;;;;17.20;16.20;;;;;15.26;31.36;98714.94;5089618;28;8887;-75
2023/03/25 03:54:17;;;;;;;;;16.40;15.20;;;;;15.21;31.62;98717.84;5088002;28;8924;-74
2023/03/25 03:56:53;;;;;;;;;14.20;13.00;;;;;15.33;31.33;98720.75;5088603;28;9006;-75
2023/03/25 03:59:27;;;;;;;;;15.40;14.00;;;;;15.18;31.51;98719.78;5069169;28;8967;-74
2023/03/25 04:02:00;;;;;;;;;18.40;17.00;;;;;15.10;31.42;98720.19;5088863;28;8855;-75
2023/03/25 04:04:30;;;;;;;;;2.50;1.50;;;;;15.06;31.53;98710.72;5089528;28;9590;-74
2023/03/25 04:07:05;;;;;;;;;15.00;13.80;;;;;15.18;31.38;98720.63;5094761;28;8875;-73
2023/03/25 04:09:42;;;;;;;;;16.40;15.40;;;;;15.17;31.44;98724.25;5104222;28;8851;-74
2023/03/25 04:12:17;;;;;;;;;16.40;15.60;;;;;15.24;31.47;98727.41;5035382;28;8851;-76
2023/03/25 04:14:47;;;;;;;;;17.20;16.00;;;;;15.22;31.37;98731.91;5053644;28;8860;-74
2023/03/25 04:17:16;;;;;;;;;15.00;13.80;;;;;15.19;31.28;98729.47;5087713;28;8836;-74
2023/03/25 04:19:47;;;;;;;;;18.20;15.80;;;;;15.18;31.29;98736.53;5053971;28;8855;-76
2023/03/25 04:22:18;;;;;;;;;12.80;12.80;;;;;15.13;31.27;98743.88;5089175;28;8879;-75
2023/03/25 04:24:48;;;;;;;;;16.75;15.75;;;;;15.15;31.37;98744.66;5088671;28;8886;-74
2023/03/25 04:27:21;;;;;;;;;17.75;17.75;;;;;15.17;31.60;98753.34;5088778;28;9042;-76
2023/03/25 04:29:51;;;;;;;;;16.80;15.20;;;;;15.10;31.44;98751.97;5085970;28;8859;-74
2023/03/25 04:32:20;;;;;;;;;16.20;15.40;;;;;15.10;31.52;98751.97;5095044;28;8863;-75
2023/03/25 04:34:49;;;;;;;;;21.00;16.60;;;;;15.09;31.50;98752.88;5085191;28;8836;-76
2023/03/25 04:37:18;;;;;;;;;17.00;17.00;;;;;14.81;32.18;98750.81;5087669;28;8852;-75
2023/03/25 04:39:47;;;;;;;;;15.00;14.60;;;;;14.85;31.99;98755.03;5087270;28;9605;-75
2023/03/25 04:42:16;;;;;;;;;15.40;14.20;;;;;14.95;32.03;98758.91;5068380;28;8885;-75
2023/03/25 04:44:47;;;;;;;;;20.60;17.80;;;;;15.01;32.11;98765.66;5068522;28;8878;-73
2023/03/25 04:47:24;;;;;;;;;18.00;17.60;;;;;15.02;32.07;98760.31;5084863;28;8887;-74
2023/03/25 04:49:53;;;;;;;;;12.00;12.00;;;;;15.03;31.94;98764.66;5083963;28;8933;-75
2023/03/25 04:52:22;;;;;;;;;20.25;20.00;;;;;14.98;32.35;98765.81;5067968;28;8867;-76
2023/03/25 04:54:51;;;;;;;;;17.40;16.80;;;;;14.74;32.60;98770.59;5081390;28;8969;-74
2023/03/25 04:57:20;;;;;;;;;17.00;16.40;;;;;14.66;32.77;98769.16;5087263;28;8844;-74
2023/03/25 04:59:50;;;;;;;;;16.20;15.20;;;;;14.63;32.89;98771.09;5084773;28;8843;-75
2023/03/25 05:02:19;;;;;;;;;18.80;18.40;;;;;14.69;32.86;98770.78;5087513;28;9738;-75
2023/03/25 05:04:48;;;;;;;;;15.40;15.20;;;;;14.81;32.81;98775.50;5091791;28;8859;-74
2023/03/25 05:07:17;;;;;;;;;17.20;16.80;;;;;14.89;32.70;98776.91;5094175;28;8947;-76
2023/03/25 05:09:46;;;;;;;;;23.00;22.75;;;;;14.92;32.88;98779.38;5087009;28;8859;-74
2023/03/25 05:12:16;;;;;;;;;19.75;19.75;;;;;15.06;32.70;98776.88;5035256;28;8855;-75
2023/03/25 05:14:45;;;;;;;;;47.75;39.50;;;;;15.17;32.63;98779.84;5086776;28;8889;-76
2023/03/25 05:17:15;;;;;;;;;34.00;30.50;;;;;15.28;32.61;98783.69;5034694;28;8975;-76
2023/03/25 05:19:44;;;;;;;;;21.80;21.60;;;;;15.36;32.39;98779.72;5087016;28;8867;-75
2023/03/25 05:22:13;;;;;;;;;53.00;42.25;;;;;15.44;32.30;98779.31;5099042;28;8884;-75
2023/03/25 05:24:43;;;;;;;;;44.50;38.25;;;;;15.50;32.45;98775.47;5086755;28;8828;-74
2023/03/25 05:27:12;;;;;;;;;21.80;20.00;;;;;15.57;32.17;98776.88;5084171;28;8990;-74
2023/03/25 05:29:43;;;;;;;;;19.40;19.40;;;;;15.65;32.09;98782.63;5086286;28;8868;-76
2023/03/25 05:32:16;;;;;;;;;22.00;21.80;;;;;15.70;32.08;98785.00;5084127;28;9645;-75
2023/03/25 05:34:47;;;;;;;;;22.00;20.20;;;;;15.81;31.99;98787.94;5086600;28;8942;-74
2023/03/25 05:37:15;;;;;;;;;18.20;16.20;;;;;15.84;31.97;98785.97;5086806;28;8848;-75
2023/03/25 05:39:44;;;;;;;;;20.20;19.40;;;;;15.93;31.74;98789.91;5056517;28;8880;-75
2023/03/25 05:42:13;;;;;;;;;20.60;18.40;;;;;15.98;31.89;98794.94;5092958;28;8851;-76
2023/03/25 05:44:50;;;;;;;;;23.25;23.25;;;;;16.01;31.79;98800.09;5093285;28;8866;-74
2023/03/25 05:47:20;;;;;;;;;22.40;21.60;;;;;16.06;31.96;98805.13;5091462;28;9403;-73
2023/03/25 05:49:53;;;;;;;;;20.60;20.40;;;;;16.13;31.89;98814.47;5090820;28;8844;-75
2023/03/25 05:52:23;;;;;;;;;21.00;20.00;;;;;16.12;31.78;98804.81;5078156;28;8848;-75
2023/03/25 05:54:52;;;;;;;;;21.40;21.40;;;;;16.18;31.65;98812.41;5093672;28;8863;-76
2023/03/25 05:57:21;;;;;;;;;20.40;20.40;;;;;16.14;31.71;98821.50;5089409;28;8828;-75
2023/03/25 05:59:50;;;;;;;;;19.80;18.20;;;;;16.25;31.66;98824.41;5088980;28;8843;-75
2023/03/25 06:02:19;;;;;;;;;11.80;11.80;;;;;16.32;31.47;98827.53;5057389;28;8872;-76
2023/03/25 06:04:49;;;;;;;;;24.00;23.00;;;;;16.38;31.36;98822.75;5093095;28;8866;-76
2023/03/25 06:07:21;;;;;;;;;19.60;17.80;;;;;16.47;31.66;98821.41;5093234;28;8832;-75
2023/03/25 06:09:53;;;;;;;;;19.40;18.80;;;;;16.43;30.91;98820.69;5090521;28;8856;-75
2023/03/25 06:12:26;;;;;;;;;20.20;20.00;;;;;16.58;31.19;98818.13;5091767;28;8854;-74
2023/03/25 06:14:55;;;;;;;;;23.60;23.20;;;;;16.69;31.54;98821.03;5087468;28;8850;-74
2023/03/25 06:17:24;;;;;;;;;20.00;19.00;;;;;15.41;31.94;98843.88;5092464;28;8906;-75
2023/03/25 06:19:53;;;;;;;;;19.00;18.00;;;;;15.82;31.82;98835.56;5091233;28;8894;-74
2023/03/25 06:22:23;;;;;;;;;21.20;19.80;;;;;16.14;31.75;98840.91;5094186;28;8974;-74
2023/03/25 06:24:52;;;;;;;;;17.80;17.80;;;;;16.06;30.93;98842.25;5093918;28;8852;-75
2023/03/25 06:27:20;;;;;;;;;17.20;16.20;;;;;15.80;31.35;98849.84;5093229;28;8872;-75
2023/03/25 06:29:49;;;;;;;;;16.60;15.40;;;;;16.04;31.22;98845.00;5073258;28;8944;-74
2023/03/25 06:32:18;;;;;;;;;16.00;16.00;;;;;16.27;30.81;98827.81;5093051;28;8863;-76
2023/03/25 06:34:47;;;;;;;;;13.60;13.40;;;;;16.44;30.57;98826.91;5093313;28;8840;-76
2023/03/25 06:37:15;;;;;;;;;21.00;19.20;;;;;16.63;30.42;98831.16;5093428;28;8886;-75
2023/03/25 06:39:48;;;;;;;;;18.80;17.60;;;;;16.76;30.28;98830.34;5041198;28;8847;-75
2023/03/25 06:42:21;;;;;;;;;19.20;15.20;;;;;16.94;30.26;98833.72;5092194;28;9385;-75
2023/03/25 06:45:11;;;;;;;;;20.40;18.20;;;;;17.11;30.34;98827.41;5092753;28;8975;-75
2023/03/25 06:47:46;;;;;;;;;20.40;17.80;;;;;17.22;30.14;98829.44;5077140;27;8885;-74
2023/03/25 06:50:16;;;;;;;;;19.00;17.40;;;;;17.13;29.62;98849.41;5089415;28;8875;-75
2023/03/25 06:52:44;;;;;;;;;18.40;18.40;;;;;15.72;31.70;98867.91;5089759;28;8879;-77
2023/03/25 06:55:15;;;;;;;;;19.20;18.20;;;;;15.11;32.98;98870.13;5089718;28;9036;-75
2023/03/25 06:57:44;;;;;;;;;14.60;13.40;;;;;15.42;32.50;98872.06;5054906;28;8995;-75
2023/03/25 07:00:14;;;;;;;;;15.00;15.00;;;;;14.88;32.96;98859.84;5071651;28;8926;-76
2023/03/25 07:02:42;;;;;;;;;22.20;19.80;;;;;14.46;33.61;98877.72;5089536;28;8948;-76
2023/03/25 07:05:11;;;;;;;;;15.80;14.40;;;;;13.98;34.34;98866.72;5086023;28;8867;-75
2023/03/25 07:07:40;;;;;;;;;18.00;16.20;;;;;13.91;34.65;98867.94;5087757;28;8864;-76
2023/03/25 07:10:12;;;;;;;;;18.20;17.00;;;;;13.88;34.82;98882.16;5088327;28;8844;-77
2023/03/25 07:12:42;;;;;;;;;18.20;16.00;;;;;14.47;33.91;98882.94;5089281;28;8857;-76
2023/03/25 07:15:11;;;;;;;;;21.00;18.20;;;;;14.70;33.52;98877.44;5088247;28;8852;-78
2023/03/25 07:17:42;;;;;;;;;16.60;16.40;;;;;15.09;33.40;98884.38;5055576;28;8845;-77
2023/03/25 07:20:12;;;;;;;;;18.40;18.40;;;;;14.27;34.56;98888.28;5070115;28;8884;-78
2023/03/25 07:22:44;;;;;;;;;10.80;10.80;;;;;13.92;35.38;98896.03;5088765;28;8860;-78
2023/03/25 07:25:13;;;;;;;;;18.00;17.80;;;;;14.09;35.28;98897.91;5084687;28;8966;-77
2023/03/25 07:27:43;;;;;;;;;17.60;16.20;;;;;13.62;36.37;98885.03;5088106;28;8856;-76
2023/03/25 07:30:16;;;;;;;;;21.00;18.00;;;;;13.62;36.62;98885.03;5101330;28;8866;-77
2023/03/25 07:32:45;;;;;;;;;22.40;17.20;;;;;13.81;36.68;98893.03;5069622;28;8874;-75
2023/03/25 07:35:15;;;;;;;;;17.20;17.20;;;;;13.90;36.40;98884.69;5068261;28;8874;-76
2023/03/25 07:37:43;;;;;;;;;21.60;19.80;;;;;14.07;35.80;98887.44;5105501;28;8986;-77
2023/03/25 07:40:13;;;;;;;;;20.00;19.20;;;;;13.74;37.00;98902.13;5092067;28;8868;-77
2023/03/25 07:42:44;;;;;;;;;17.40;17.40;;;;;13.60;37.76;98903.59;5090490;28;8868;-78
2023/03/25 07:45:24;;;;;;;;;22.00;19.20;;;;;13.51;38.25;98901.38;5073018;28;8878;-78
2023/03/25 07:47:53;;;;;;;;;18.40;18.40;;;;;13.77;37.44;98904.63;5106716;28;8863;-80
2023/03/25 07:50:23;;;;;;;;;18.60;18.60;;;;;13.50;38.33;98908.41;5067724;28;8879;-78
2023/03/25 07:52:57;;;;;;;;;15.60;13.80;;;;;12.99;39.93;98914.97;5034253;28;8875;-76
2023/03/25 07:55:26;;;;;;;;;19.60;18.40;;;;;13.05;40.24;98919.13;5050057;28;8848;-77
2023/03/25 07:57:57;;;;;;;;;24.00;22.60;;;;;12.71;40.99;98923.97;5065941;28;8878;-76
2023/03/25 08:00:26;;;;;;;;;18.60;18.60;;;;;12.50;41.93;98923.06;5066324;28;8852;-76
2023/03/25 08:02:55;;;;;;;;;22.00;22.00;;;;;12.65;42.13;98921.56;5066493;28;8847;-75
2023/03/25 08:05:24;;;;;;;;;26.00;24.25;;;;;12.81;42.30;98916.56;5065912;28;8856;-75
2023/03/25 08:07:54;;;;;;;;;17.40;17.40;;;;;12.99;42.01;98914.97;5066842;28;8851;-76
2023/03/25 08:10:23;;;;;;;;;27.00;24.00;;;;;13.07;42.32;98922.56;5049710;28;8899;-76
2023/03/25 08:12:53;;;;;;;;;24.75;23.00;;;;;12.81;43.22;98913.91;5066101;28;8865;-76
2023/03/25 08:15:23;;;;;;;;;22.80;21.20;;;;;12.58;44.32;98924.50;5065464;28;8862;-76
2023/03/25 08:17:53;;;;;;;;;24.50;24.00;;;;;13.06;43.40;98912.94;5065645;28;9713;-75
2023/03/25 08:20:22;;;;;;;;;24.00;23.00;;;;;13.42;43.06;98913.16;5066423;28;8940;-76
2023/03/25 08:22:51;;;;;;;;;24.60;20.80;;;;;13.15;43.82;98917.84;5069162;28;8850;-79
2023/03/25 08:25:20;;;;;;;;;25.40;24.20;;;;;13.35;43.75;98916.13;5076978;28;9007;-77
2023/03/25 08:27:49;;;;;;;;;20.75;20.75;;;;;13.51;43.73;98917.22;5086303;28;8843;-78
2023/03/25 08:30:18;;;;;;;;;23.40;22.40;;;;;13.47;43.75;98924.41;5087555;28;9570;-77
2023/03/25 08:32:53;;;;;;;;;23.20;18.00;;;;;13.31;44.52;98926.81;5086913;28;8968;-78
2023/03/25 08:35:23;;;;;;;;;18.00;16.60;;;;;13.15;45.41;98922.25;5101237;28;8848;-77
2023/03/25 08:37:52;;;;;;;;;14.80;14.80;;;;;13.05;45.93;98920.00;5088857;28;8844;-78
2023/03/25 08:40:21;;;;;;;;;17.40;16.20;;;;;13.28;45.59;98928.75;5088587;28;8848;-79
2023/03/25 08:42:50;;;;;;;;;20.40;18.60;;;;;13.21;46.11;98933.41;5051904;28;8836;-76
2023/03/25 08:45:19;;;;;;;;;18.60;18.20;;;;;13.08;46.74;98926.94;5063267;28;8850;-78
2023/03/25 08:47:49;;;;;;;;;14.80;14.80;;;;;13.02;47.55;98933.31;5050365;28;8842;-67
2023/03/25 08:50:19;;;;;;;;;15.40;15.40;;;;;13.18;47.02;98917.69;5067877;28;8862;-69
2023/03/25 08:52:48;;;;;;;;;17.20;17.20;;;;;13.60;46.02;98924.72;5066587;28;9008;-73
2023/03/25 08:55:17;;;;;;;;;18.40;16.60;;;;;13.28;47.41;98926.97;5069193;28;8808;-74
2023/03/25 08:57:46;;;;;;;;;20.60;20.40;;;;;13.65;46.30;98921.88;5086884;28;8960;-74
2023/03/25 09:00:15;;;;;;;;;22.40;19.60;;;;;13.62;46.37;98917.59;5086864;28;8933;-74
2023/03/25 09:02:44;;;;;;;;;19.60;18.80;;;;;13.84;45.97;98925.44;5086196;28;8898;-77
2023/03/25 09:05:16;;;;;;;;;17.80;16.20;;;;;13.59;46.80;98915.09;5070067;28;9694;-75
2023/03/25 09:07:44;;;;;;;;;23.20;20.40;;;;;13.68;46.65;98927.03;5082483;28;8978;-73
2023/03/25 09:10:14;;;;;;;;;20.80;20.80;;;;;13.85;46.54;98929.81;5065299;28;8863;-75
2023/03/25 09:12:43;;;;;;;;;21.20;20.60;;;;;13.89;46.61;98936.69;5064882;28;8966;-73
2023/03/25 09:15:12;;;;;;;;;22.00;21.20;;;;;13.60;47.62;98922.09;5064836;28;9050;-75
2023/03/25 09:17:41;;;;;;;;;26.25;26.00;;;;;13.75;47.26;98927.63;5064838;28;8852;-75
2023/03/25 09:20:11;;;;;;;;;23.75;21.75;;;;;14.08;46.61;98926.13;5047941;28;8856;-76
2023/03/25 09:22:41;;;;;;;;;25.75;23.00;;;;;13.77;47.66;98931.03;5050444;28;8876;-74
2023/03/25 09:25:11;;;;;;;;;24.20;21.00;;;;;13.87;47.53;98920.03;5047050;28;8858;-75
2023/03/25 09:27:39;;;;;;;;;24.00;23.25;;;;;13.65;48.08;98928.00;5045214;28;8941;-75
2023/03/25 09:30:10;;;;;;;;;21.00;20.60;;;;;14.25;46.84;98924.53;5044798;28;8886;-71
2023/03/25 09:32:39;;;;;;;;;24.80;22.00;;;;;13.96;47.29;98917.91;5061495;28;8940;-74
2023/03/25 09:35:08;;;;;;;;;21.80;21.60;;;;;13.75;48.33;98927.63;5012348;28;8912;-76
2023/03/25 09:37:37;;;;;;;;;18.00;17.80;;;;;14.27;47.23;98925.31;5028522;28;8892;-75
2023/03/25 09:40:13;;;;;;;;;14.20;14.20;;;;;14.00;48.02;98930.06;5086796;28;8897;-75
2023/03/25 09:42:57;;;;;;;;;17.60;17.60;;;;;14.05;48.22;98928.94;5087303;28;9613;-76
2023/03/25 09:45:34;;;;;;;;;19.80;17.80;;;;;13.86;49.07;98933.31;5086252;28;8878;-74
2023/03/25 09:48:21;;;;;;;;;14.60;13.00;;;;;14.46;46.86;98926.16;5068981;28;8879;-75
2023/03/25 09:50:50;;;;;;;;;16.20;15.40;;;;;13.95;49.02;98926.78;5088416;28;8864;-75
2023/03/25 09:53:29;;;;;;;;;16.40;14.40;;;;;13.76;49.59;98926.69;5068291;28;8885;-76
2023/03/25 09:56:01;;;;;;;;;16.60;15.80;;;;;13.74;49.74;98925.91;5069474;28;8863;-76
2023/03/25 09:58:40;;;;;;;;;11.80;9.60;;;;;13.59;50.17;98920.38;5068542;28;9057;-75
2023/03/25 10:01:22;;;;;;;;;15.80;14.80;;;;;13.87;49.32;98924.47;5087208;28;8875;-73
2023/03/25 10:04:09;;;;;;;;;15.20;12.60;;;;;13.09;51.60;98934.78;5102710;28;8867;-76
2023/03/25 10:06:46;;;;;;;;;13.80;13.40;;;;;13.21;51.73;98929.94;5086119;28;8843;-74
2023/03/25 10:09:35;;;;;;;;;9.60;9.60;;;;;12.96;51.89;98930.06;5086359;28;8852;-76
2023/03/25 10:12:22;;;;;;;;;14.20;12.00;;;;;12.86;52.25;98932.22;5069368;28;8928;-76
2023/03/25 10:15:01;;;;;;;;;10.20;10.20;;;;;12.78;52.48;98921.94;5085505;28;8891;-74
2023/03/25 10:17:39;;;;;;;;;11.60;10.20;;;;;13.66;49.97;98924.47;5087581;28;8843;-77
2023/03/25 10:20:16;;;;;;;;;12.80;11.40;;;;;14.41;47.88;98917.59;5099050;28;8956;-77
2023/03/25 10:23:03;;;;;;;;;10.20;9.00;;;;;14.72;46.91;98900.28;5085193;28;9056;-76
2023/03/25 10:25:37;;;;;;;;;12.80;12.80;;;;;15.04;45.94;98909.31;5082890;28;8843;-74
2023/03/25 10:28:17;;;;;;;;;10.00;10.00;;;;;14.81;45.82;98914.84;5015726;28;9609;-78
2023/03/25 10:30:51;;;;;;;;;11.20;9.00;;;;;14.28;47.57;98912.03;5047613;28;8871;-77
2023/03/25 10:33:28;;;;;;;;;11.20;10.60;;;;;14.01;48.27;98927.34;5066337;28;8893;-75
2023/03/25 10:36:00;;;;;;;;;11.60;10.80;;;;;14.32;47.40;98917.16;5082039;28;8852;-77
2023/03/25 10:38:32;;;;;;;;;14.60;14.00;;;;;14.15;48.08;98917.94;5045363;28;8879;-79
2023/03/25 10:41:11;;;;;;;;;12.00;10.60;;;;;13.44;49.65;98919.25;5034339;28;8898;-74
2023/03/25 10:43:43;;;;;;;;;12.40;11.20;;;;;13.80;48.88;98912.44;5024850;28;8977;-75
2023/03/25 10:46:22;;;;;;;;;12.80;11.00;;;;;13.67;49.42;98906.81;5043427;28;8850;-78
2023/03/25 10:48:51;;;;;;;;;7.60;7.60;;;;;13.19;50.18;98918.56;5005005;28;8961;-75
2023/03/25 10:51:24;;;;;;;;;8.20;8.20;;;;;13.35;49.40;98903.78;5024460;28;8897;-77
2023/03/25 10:53:53;;;;;;;;;9.40;8.40;;;;;13.27;50.31;98913.81;5030262;28;8858;-77
2023/03/25 10:56:25;;;;;;;;;12.60;12.60;;;;;13.36;49.40;98907.31;5047251;28;8966;-74
2023/03/25 10:58:58;;;;;;;;;12.40;11.20;;;;;13.22;50.11;98906.13;5036495;28;8843;-74
2023/03/25 11:01:36;;;;;;;;;14.20;14.20;;;;;12.74;51.17;98904.53;5051456;28;8883;-76
2023/03/25 11:04:09;;;;;;;;;9.60;8.20;;;;;12.73;52.09;98897.53;5033671;28;8832;-68
2023/03/25 11:06:40;;;;;;;;;11.00;9.20;;;;;12.92;50.85;98890.63;5050336;28;8848;-68
2023/03/25 11:09:16;;;;;;;;;8.20;7.40;;;;;13.20;49.18;98883.34;5054497;28;8930;-68
2023/03/25 11:11:47;;;;;;;;;7.00;7.00;;;;;13.26;48.20;98878.66;5069330;28;8860;-68
2023/03/25 11:14:22;;;;;;;;;12.60;11.80;;;;;13.75;47.83;98880.94;5064638;28;8839;-69
2023/03/25 11:16:56;;;;;;;;;7.00;7.00;;;;;13.41;47.82;98884.19;5072467;28;8952;-72
2023/03/25 11:19:27;;;;;;;;;6.20;6.00;;;;;13.30;47.82;98877.59;5087254;28;8832;-69
2023/03/25 11:22:00;;;;;;;;;7.60;7.00;;;;;13.40;48.44;98875.41;5069089;28;8879;-69
2023/03/25 11:24:32;;;;;;;;;6.00;5.80;;;;;13.59;47.54;98871.97;5089484;28;8832;-70
2023/03/25 11:27:02;;;;;;;;;5.00;5.00;;;;;14.07;45.35;98868.94;5053537;28;8860;-68
2023/03/25 11:29:33;;;;;;;;;5.40;4.60;;;;;13.94;45.40;98869.56;5052945;28;8954;-69
2023/03/25 11:32:08;;;;;;;;;4.80;4.80;;;;;14.04;45.35;98860.28;5089537;28;8892;-70
2023/03/25 11:34:40;;;;;;;;;3.60;3.60;;;;;14.68;43.79;98851.94;5071001;28;8848;-68
2023/03/25 11:37:17;;;;;;;;;4.00;3.00;;;;;14.34;43.50;98843.91;5087980;28;8924;-70
2023/03/25 11:39:53;;;;;;;;;2.00;2.00;;;;;13.92;43.74;98851.13;5087457;28;8932;-69
2023/03/25 11:42:31;;;;;;;;;3.80;2.40;;;;;13.79;43.68;98847.31;5095890;28;8870;-69
2023/03/25 11:45:03;;;;;;;;;1.60;1.60;;;;;14.13;41.65;98838.72;5070009;28;8846;-68
2023/03/25 11:47:34;;;;;;;;;1.60;1.00;;;;;14.26;41.30;98839.88;5088954;28;8982;-69
2023/03/25 11:50:05;;;;;;;;;1.20;1.20;;;;;13.95;41.66;98832.50;5088944;28;8929;-70
2023/03/25 11:52:41;;;;;;;;;2.20;2.20;;;;;13.62;42.73;98837.50;5037281;28;9546;-67